Time;durP1;ratioP1;P1;durP2;ratioP2;P2;SDS_P1;SDS_P2;PMS_P1;PMS_P2;Temp;Humidity;BMP_temperature;BMP_pressure;BME280_temperature;BME280_humidity;BME280_pressure;Samples;Min_cycle;Max_cycle;Signal;HPM_P1;HPM_P2
2021/05/16 00:04:07;;;;;;;4.20;2.13;;;;;;;10.92;81.73;99016.38;10215576;28;20065;-59
2021/05/16 00:09:09;;;;;;;3.78;2.30;;;;;;;10.88;82.82;99015.81;10212621;28;20059;-60
2021/05/16 00:14:10;;;;;;;3.00;2.08;;;;;;;10.80;82.44;99007.78;10209818;28;20039;-61
2021/05/16 00:19:11;;;;;;;2.75;2.20;;;;;;;10.72;83.12;99007.72;10225939;28;20063;-58
2021/05/16 00:24:14;;;;;;;5.22;2.70;;;;;;;10.89;82.50;99014.00;10211564;28;20066;-62
2021/05/16 00:29:16;;;;;;;4.68;2.30;;;;;;;10.91;82.70;99015.53;10213389;28;20107;-59
2021/05/16 00:34:17;;;;;;;6.75;2.70;;;;;;;10.85;81.95;99021.47;10212071;28;20039;-58
2021/05/16 00:39:19;;;;;;;4.25;2.38;;;;;;;11.01;81.92;99019.91;10206372;28;22451;-60
2021/05/16 00:44:22;;;;;;;5.75;2.58;;;;;;;10.94;80.69;99025.03;10214823;28;20134;-58
2021/05/16 00:49:23;;;;;;;3.83;2.53;;;;;;;10.89;81.16;99017.50;10213458;28;20047;-64
2021/05/16 00:54:24;;;;;;;4.57;2.45;;;;;;;10.73;81.79;99017.38;10228070;28;20131;-58
2021/05/16 00:59:26;;;;;;;4.88;2.45;;;;;;;10.85;81.25;99013.47;10217335;28;20736;-58
2021/05/16 01:04:28;;;;;;;3.47;2.58;;;;;;;10.84;81.36;99009.16;10214159;28;20071;-60
2021/05/16 01:09:30;;;;;;;4.57;2.80;;;;;;;10.69;81.85;99016.00;10212280;28;20055;-59
2021/05/16 01:14:34;;;;;;;3.75;2.38;;;;;;;10.87;82.20;99022.16;10214736;28;20106;-58
2021/05/16 01:19:36;;;;;;;4.87;2.70;;;;;;;10.83;81.08;99018.13;10208516;28;20470;-62
2021/05/16 01:24:42;;;;;;;3.05;2.63;;;;;;;10.78;81.15;99025.75;10212078;28;20103;-60
2021/05/16 01:29:44;;;;;;;5.70;2.75;;;;;;;10.68;81.94;99025.00;10209603;28;20049;-61
2021/05/16 01:34:45;;;;;;;5.88;3.83;;;;;;;10.79;81.38;99028.25;10213948;28;20047;-59
2021/05/16 01:39:48;;;;;;;6.80;3.55;;;;;;;10.74;81.68;99035.03;10212337;28;20102;-59
2021/05/16 01:44:53;;;;;;;5.65;2.42;;;;;;;10.88;81.64;99039.78;10214522;28;20107;-60
2021/05/16 01:50:06;;;;;;;5.15;2.67;;;;;;;10.88;80.69;99042.44;10222143;28;20083;-59
2021/05/16 01:55:09;;;;;;;6.03;2.70;;;;;;;10.70;81.02;99057.63;10223451;28;20051;-60
2021/05/16 02:00:16;;;;;;;4.15;2.75;;;;;;;10.57;81.86;99053.53;10215763;28;20058;-60
2021/05/16 02:05:17;;;;;;;7.30;3.03;;;;;;;10.72;81.63;99047.63;10204457;28;20484;-60
2021/05/16 02:10:20;;;;;;;4.97;2.38;;;;;;;10.75;81.53;99042.03;10215811;28;21805;-59
2021/05/16 02:15:21;;;;;;;5.20;2.60;;;;;;;10.87;81.27;99038.13;10222091;28;20070;-59
2021/05/16 02:20:23;;;;;;;5.40;2.65;;;;;;;10.90;81.20;99034.31;10222502;28;20114;-58
2021/05/16 02:25:24;;;;;;;6.00;2.65;;;;;;;10.79;80.51;99032.72;10216027;28;20079;-60
2021/05/16 02:30:25;;;;;;;3.90;2.85;;;;;;;10.88;79.89;99030.97;10229028;23;20538;-58
2021/05/16 02:35:27;;;;;;;4.93;2.38;;;;;;;10.92;80.13;99035.81;10263539;28;20451;-61
2021/05/16 02:40:28;;;;;;;4.30;2.30;;;;;;;10.85;80.23;99033.94;10260199;28;20141;-59
2021/05/16 02:45:30;;;;;;;3.92;2.13;;;;;;;10.83;80.24;99038.59;10277741;28;20058;-59
2021/05/16 02:50:32;;;;;;;4.63;2.58;;;;;;;10.59;80.80;99027.59;10280482;28;20070;-64
2021/05/16 02:55:33;;;;;;;5.03;2.53;;;;;;;10.64;81.04;99039.59;10297360;28;20055;-59
2021/05/16 03:00:34;;;;;;;5.28;2.33;;;;;;;10.77;81.20;99040.88;10274391;28;20055;-59
2021/05/16 03:05:36;;;;;;;5.93;2.65;;;;;;;10.71;80.33;99040.66;10271469;28;20054;-61
2021/05/16 03:10:38;;;;;;;4.35;1.88;;;;;;;10.61;81.54;99036.28;10265398;28;20051;-60
2021/05/16 03:15:39;;;;;;;5.72;2.28;;;;;;;10.49;81.38;99026.00;10265374;28;20098;-61
2021/05/16 03:20:41;;;;;;;7.22;2.65;;;;;;;10.52;82.00;99026.53;10265665;28;20049;-60
2021/05/16 03:25:42;;;;;;;3.10;2.25;;;;;;;10.65;81.31;99017.34;10261928;28;20705;-60
2021/05/16 03:30:44;;;;;;;4.78;2.22;;;;;;;10.52;82.09;99015.88;10246408;28;20063;-64
2021/05/16 03:35:46;;;;;;;2.85;2.05;;;;;;;10.66;81.76;99005.69;10262296;28;20050;-61
2021/05/16 03:40:48;;;;;;;4.57;3.10;;;;;;;10.72;81.28;99008.56;10257499;28;20047;-60
2021/05/16 03:45:49;;;;;;;5.55;2.30;;;;;;;10.65;82.08;99009.34;10259218;28;20487;-60
2021/05/16 03:50:51;;;;;;;5.40;2.90;;;;;;;10.56;82.07;99011.09;10241505;28;20051;-60
2021/05/16 03:55:53;;;;;;;5.07;2.60;;;;;;;10.39;83.19;99015.47;10262140;28;20051;-59
2021/05/16 04:00:54;;;;;;;3.45;2.30;;;;;;;10.43;83.31;99025.63;10260707;28;20681;-61
2021/05/16 04:05:56;;;;;;;5.45;3.35;;;;;;;10.46;83.75;99031.63;10232846;28;20054;-59
2021/05/16 04:10:57;;;;;;;5.88;3.28;;;;;;;10.50;83.59;99020.53;10247795;28;20077;-60
2021/05/16 04:15:59;;;;;;;3.55;2.22;;;;;;;10.62;83.22;99021.13;10256713;28;20113;-60
2021/05/16 04:21:02;;;;;;;5.10;2.70;;;;;;;10.68;82.79;99019.69;10240584;28;20053;-60
2021/05/16 04:26:03;;;;;;;5.07;1.88;;;;;;;10.60;82.72;99026.59;10246454;28;20907;-60
2021/05/16 04:31:05;;;;;;;4.30;2.40;;;;;;;10.64;83.00;99020.97;10256110;28;20055;-60
2021/05/16 04:36:06;;;;;;;4.15;2.20;;;;;;;10.77;81.98;99021.41;10251979;28;20529;-60
2021/05/16 04:41:08;;;;;;;3.80;1.90;;;;;;;10.68;82.54;99015.19;10239213;28;20055;-60
2021/05/16 04:46:09;;;;;;;4.05;2.05;;;;;;;10.67;82.88;99018.81;10259116;28;20566;-60
2021/05/16 04:51:11;;;;;;;5.00;3.17;;;;;;;10.70;82.94;99017.69;10258820;28;20109;-60
2021/05/16 04:56:12;;;;;;;4.72;2.55;;;;;;;10.84;82.37;99019.81;10260654;28;20054;-60
2021/05/16 05:01:14;;;;;;;3.83;2.17;;;;;;;11.13;81.01;99021.31;10243526;28;20527;-60
2021/05/16 05:06:16;;;;;;;2.83;1.80;;;;;;;11.07;81.43;99013.97;10244252;28;20070;-60
2021/05/16 05:11:17;;;;;;;3.13;1.90;;;;;;;10.99;81.93;99019.22;10257932;28;20043;-61
2021/05/16 05:16:19;;;;;;;4.00;1.80;;;;;;;11.05;82.25;99015.94;10258333;28;20054;-60
2021/05/16 05:21:20;;;;;;;2.75;2.15;;;;;;;11.14;81.61;99025.66;10277056;28;20046;-60
2021/05/16 05:26:22;;;;;;;4.18;1.88;;;;;;;11.22;81.54;99023.03;10285929;28;20047;-59
2021/05/16 05:31:24;;;;;;;2.75;1.63;;;;;;;11.32;81.05;99023.75;10265365;28;20769;-60
2021/05/16 05:36:28;;;;;;;2.17;1.88;;;;;;;11.35;81.77;99011.09;10261572;28;20065;-60
2021/05/16 05:41:30;;;;;;;2.30;2.00;;;;;;;11.44;81.24;99005.69;10249850;28;20058;-61
2021/05/16 05:46:31;;;;;;;4.32;2.25;;;;;;;11.62;80.08;99016.25;10266104;28;20050;-60
2021/05/16 05:51:33;;;;;;;2.42;1.88;;;;;;;11.61;80.10;99016.41;10281225;28;20078;-61
2021/05/16 05:56:36;;;;;;;4.55;2.25;;;;;;;11.47;80.72;99016.00;10291724;28;20067;-63
2021/05/16 06:01:38;;;;;;;6.50;2.30;;;;;;;11.60;80.79;99023.53;10280786;28;20042;-60
2021/05/16 06:06:39;;;;;;;3.78;2.95;;;;;;;11.73;79.69;99016.94;10263361;28;20113;-65
2021/05/16 06:11:41;;;;;;;3.72;2.80;;;;;;;11.99;79.14;99023.06;10285818;28;20043;-60
2021/05/16 06:16:42;;;;;;;5.05;3.15;;;;;;;12.05;78.77;99023.41;10289643;28;20051;-60
2021/05/16 06:21:43;;;;;;;3.53;3.15;;;;;;;12.12;78.49;99019.91;10274631;28;20079;-61
2021/05/16 06:26:46;;;;;;;4.00;3.60;;;;;;;12.05;78.95;99024.22;10272948;28;20051;-60
2021/05/16 06:31:47;;;;;;;4.72;4.30;;;;;;;12.04;78.47;99025.25;10243736;28;20066;-61
2021/05/16 06:36:49;;;;;;;6.07;4.13;;;;;;;12.11;78.08;99022.75;10248710;28;20055;-60
2021/05/16 06:41:50;;;;;;;6.88;5.35;;;;;;;12.02;78.90;99019.22;10250653;28;20121;-61
2021/05/16 06:46:52;;;;;;;6.32;4.85;;;;;;;12.07;78.98;99018.72;10250329;28;20223;-60
2021/05/16 06:51:53;;;;;;;5.05;4.40;;;;;;;12.15;78.81;99018.75;10237008;28;20051;-61
2021/05/16 06:56:54;;;;;;;5.60;5.10;;;;;;;12.21;78.80;99023.44;10249145;28;20108;-60
2021/05/16 07:01:56;;;;;;;4.93;4.40;;;;;;;12.14;78.99;99017.91;10249262;28;20051;-60
2021/05/16 07:06:58;;;;;;;4.90;4.50;;;;;;;12.14;80.27;99022.41;10232970;28;20082;-60
2021/05/16 07:11:59;;;;;;;5.28;4.78;;;;;;;12.15;80.96;99019.59;10242288;28;20058;-60
2021/05/16 07:17:02;;;;;;;12.02;4.35;;;;;;;12.18;81.57;99021.09;10248456;28;20065;-60
2021/05/16 07:22:04;;;;;;;4.47;4.07;;;;;;;12.13;82.33;99016.25;10244348;28;20050;-60
2021/05/16 07:27:05;;;;;;;6.18;4.60;;;;;;;12.40;81.74;99010.78;10245000;28;20133;-60
2021/05/16 07:32:07;;;;;;;4.45;4.05;;;;;;;12.81;81.00;99002.78;10255308;28;20055;-60
2021/05/16 07:37:08;;;;;;;4.70;3.95;;;;;;;13.21;78.66;99003.69;10239282;28;20086;-61
2021/05/16 07:42:10;;;;;;;5.13;3.97;;;;;;;12.87;77.81;98996.78;10254321;28;20050;-61
2021/05/16 07:47:12;;;;;;;4.78;4.18;;;;;;;12.57;78.46;98996.44;10271071;28;20061;-61
2021/05/16 07:52:13;;;;;;;4.10;3.33;;;;;;;12.45;79.73;99008.47;10276191;28;20054;-62
2021/05/16 07:57:14;;;;;;;2.85;2.65;;;;;;;12.55;79.47;99003.81;10272241;28;20047;-60
2021/05/16 08:02:17;;;;;;;2.92;2.63;;;;;;;12.67;78.42;99002.47;10277244;28;20042;-61
2021/05/16 08:07:19;;;;;;;3.13;2.20;;;;;;;12.72;77.62;98999.28;10259583;28;20046;-61
2021/05/16 08:12:21;;;;;;;2.53;2.25;;;;;;;13.47;76.80;99018.72;10270048;28;20081;-60
2021/05/16 08:17:22;;;;;;;4.13;2.13;;;;;;;13.69;74.76;99007.25;10228084;28;20222;-60
2021/05/16 08:22:24;;;;;;;3.10;1.75;;;;;;;13.79;73.57;98989.13;10243586;28;20054;-60
2021/05/16 08:27:25;;;;;;;2.22;2.05;;;;;;;14.17;72.33;98992.94;10239706;28;20089;-60
2021/05/16 08:32:27;;;;;;;2.53;1.63;;;;;;;14.11;71.24;99000.66;10234111;23;20102;-56
2021/05/16 08:37:28;;;;;;;2.00;1.80;;;;;;;13.93;73.01;98984.03;10253360;28;20208;-55
2021/05/16 08:42:31;;;;;;;2.25;1.85;;;;;;;13.58;73.89;98956.81;10249916;28;20122;-59
2021/05/16 08:47:33;;;;;;;2.83;1.98;;;;;;;13.58;73.68;98984.38;10250544;28;20145;-60
2021/05/16 08:52:34;;;;;;;2.33;1.95;;;;;;;13.46;73.51;98980.44;10245917;28;20259;-59
2021/05/16 08:57:39;;;;;;;3.35;2.15;;;;;;;14.10;72.23;98971.41;10246578;28;20504;-55
2021/05/16 09:03:10;;;;;;;2.47;1.97;;;;;;;14.00;71.49;98976.97;10243814;28;20038;-55
2021/05/16 09:08:22;;;;;;;4.93;1.67;;;;;;;14.00;72.37;98968.94;10250460;28;20042;-58
2021/05/16 09:13:28;;;;;;;3.47;1.27;;;;;;;14.52;70.59;98964.75;10240984;28;20168;-58
2021/05/16 09:18:42;;;;;;;3.72;1.85;;;;;;;14.67;70.34;98956.78;10256987;28;20419;-56
2021/05/16 09:23:44;;;;;;;3.20;1.27;;;;;;;14.28;71.22;98965.78;10254497;28;20152;-58
2021/05/16 09:28:45;;;;;;;3.35;1.50;;;;;;;14.09;70.78;98978.59;10247991;28;20133;-59
2021/05/16 09:34:01;;;;;;;3.53;1.45;;;;;;;14.27;69.43;98982.81;10256275;28;20542;-52
2021/05/16 09:39:12;;;;;;;2.83;1.17;;;;;;;14.13;69.12;98985.25;10269534;28;20054;-60
2021/05/16 09:44:33;;;;;;;1.73;1.33;;;;;;;14.90;69.09;98978.13;10259877;28;20771;-59
2021/05/16 09:49:34;;;;;;;5.28;1.70;;;;;;;15.94;63.72;98965.69;10265507;28;20051;-59
2021/05/16 09:54:56;;;;;;;2.85;1.70;;;;;;;16.32;61.67;98969.00;10267198;28;20083;-57
2021/05/16 09:59:58;;;;;;;3.15;1.30;;;;;;;16.08;61.81;98952.22;10269263;28;20145;-58
2021/05/16 10:05:01;;;;;;;5.22;1.88;;;;;;;17.01;59.21;98969.34;10269515;28;20157;-54
2021/05/16 10:10:04;;;;;;;2.00;1.20;;;;;;;17.02;57.19;98995.22;10254209;28;20523;-57
2021/05/16 10:15:13;;;;;;;3.33;0.95;;;;;;;15.68;61.23;98975.91;10278299;28;20082;-56
2021/05/16 10:20:17;;;;;;;2.17;1.13;;;;;;;15.60;61.26;98951.88;10277854;28;20108;-53
2021/05/16 10:25:38;;;;;;;4.07;1.33;;;;;;;16.14;59.76;98956.00;10275048;28;20098;-57
2021/05/16 10:30:41;;;;;;;3.92;1.38;;;;;;;16.93;59.25;98941.63;10259262;28;20042;-54
2021/05/16 10:35:50;;;;;;;2.07;0.90;;;;;;;16.53;59.02;98927.00;10247716;28;20054;-54
2021/05/16 10:41:15;;;;;;;3.65;1.00;;;;;;;16.34;57.10;98920.47;10264003;28;20137;-60
2021/05/16 10:46:46;;;;;;;5.28;2.50;;;;;;;16.26;57.00;98919.56;10244181;28;20070;-53
2021/05/16 10:51:47;;;;;;;2.97;1.48;;;;;;;17.21;56.51;98915.72;10245990;28;20136;-61
2021/05/16 10:57:16;;;;;;;2.08;0.90;;;;;;;17.85;53.69;98901.88;10250189;28;20136;-57
2021/05/16 11:02:55;;;;;;;3.22;1.35;;;;;;;17.85;52.41;98901.03;10241615;28;20038;-55
2021/05/16 11:07:56;;;;;;;2.88;1.20;;;;;;;18.29;52.65;98853.06;10246162;28;20177;-57
2021/05/16 11:13:15;;;;;;;2.72;0.90;;;;;;;18.00;51.88;98872.09;10244129;28;20137;-55
2021/05/16 11:18:19;;;;;;;2.97;0.80;;;;;;;18.17;50.47;98855.53;10255799;28;20117;-57
2021/05/16 11:23:26;;;;;;;3.58;1.05;;;;;;;17.70;51.26;98862.69;10253346;28;20515;-60
2021/05/16 11:28:30;;;;;;;2.35;1.02;;;;;;;18.50;47.36;98846.63;10242530;28;20668;-57
2021/05/16 11:33:34;;;;;;;3.53;1.27;;;;;;;18.67;44.28;98872.06;10259350;28;20066;-59
2021/05/16 11:38:38;;;;;;;2.88;1.00;;;;;;;18.26;46.44;98846.22;10274367;28;20054;-55
2021/05/16 11:43:42;;;;;;;3.15;0.98;;;;;;;18.18;45.39;98846.44;10270585;28;20137;-59
2021/05/16 11:48:45;;;;;;;;;;;;;;;17.91;45.40;98834.81;10273570;28;20077;-58
2021/05/16 11:53:53;;;;;;;1.90;1.00;;;;;;;18.17;45.51;98836.69;10264657;28;19922;-52
2021/05/16 11:59:01;;;;;;;3.47;1.10;;;;;;;18.39;44.19;98831.94;10264284;28;20148;-59
2021/05/16 12:04:15;;;;;;;2.33;0.93;;;;;;;18.88;43.08;98825.19;10264617;28;20094;-53
2021/05/16 12:09:19;;;;;;;7.43;1.23;;;;;;;19.61;39.75;98809.72;10248468;28;20570;-57
2021/05/16 12:14:23;;;;;;;2.70;0.77;;;;;;;19.38;42.71;98808.41;10249374;28;20500;-59
2021/05/16 12:19:32;;;;;;;2.70;1.15;;;;;;;19.25;41.63;98803.06;10268592;28;20141;-53
2021/05/16 12:24:36;;;;;;;2.30;1.08;;;;;;;19.28;42.26;98799.94;10265180;28;20046;-60
2021/05/16 12:29:40;;;;;;;4.10;0.95;;;;;;;18.79;41.05;98802.16;10268787;28;20062;-60
2021/05/16 12:34:42;;;;;;;4.50;0.95;;;;;;;18.81;44.21;98793.88;10263888;28;20045;-56
2021/05/16 12:39:48;;;;;;;4.85;1.65;;;;;;;19.38;48.30;98803.00;10267642;28;20130;-55
2021/05/16 12:44:51;;;;;;;4.13;1.83;;;;;;;19.33;47.10;98783.91;10262400;28;20058;-56
2021/05/16 12:50:10;;;;;;;2.72;1.20;;;;;;;18.79;45.76;98791.38;10269159;28;20047;-59
2021/05/16 12:55:28;;;;;;;3.63;1.20;;;;;;;17.69;48.26;98804.53;10265888;28;20077;-57
2021/05/16 13:00:34;;;;;;;5.60;2.05;;;;;;;17.01;55.73;98825.03;10265899;28;20412;-56
2021/05/16 13:05:47;;;;;;;3.38;1.40;;;;;;;15.89;62.66;98838.28;10249306;28;20764;-55
2021/05/16 13:10:54;;;;;;;3.75;1.55;;;;;;;15.56;64.71;98811.94;10267384;28;20822;-52
2021/05/16 13:16:06;;;;;;;1.13;0.80;;;;;;;15.70;63.43;98769.16;10263361;28;20610;-57
2021/05/16 13:21:14;;;;;;;2.45;1.20;;;;;;;16.23;60.48;98791.09;10265230;28;20038;-57
2021/05/16 13:26:16;;;;;;;2.90;1.10;;;;;;;16.63;59.02;98795.03;10265167;28;20050;-59
2021/05/16 13:31:17;;;;;;;4.20;1.35;;;;;;;16.87;60.11;98786.50;10265007;28;20133;-56
2021/05/16 13:36:19;;;;;;;2.80;1.40;;;;;;;17.45;58.12;98779.88;10262188;28;20196;-60
2021/05/16 13:41:20;;;;;;;3.30;1.00;;;;;;;17.67;57.45;98792.13;10266159;28;20746;-56
2021/05/16 13:46:22;;;;;;;2.25;0.77;;;;;;;17.99;53.08;98778.91;10272292;28;20200;-53
2021/05/16 13:51:23;;;;;;;1.90;0.90;;;;;;;17.56;54.81;98778.44;10274698;28;20488;-59
2021/05/16 13:56:25;;;;;;;4.70;1.08;;;;;;;17.37;54.62;98764.75;10271519;28;20078;-56
2021/05/16 14:01:27;;;;;;;1.83;0.90;;;;;;;17.39;55.10;98760.00;10276608;28;20054;-58
2021/05/16 14:06:28;;;;;;;1.98;0.90;;;;;;;17.40;53.98;98748.22;10273284;28;20642;-57
2021/05/16 14:11:30;;;;;;;3.63;1.30;;;;;;;17.41;54.90;98749.03;10275711;28;20050;-54
2021/05/16 14:16:32;;;;;;;5.03;1.98;;;;;;;17.60;54.29;98737.47;10272024;28;20087;-60
2021/05/16 14:21:33;;;;;;;4.72;1.73;;;;;;;17.81;53.71;98733.75;10256944;28;20472;-53
2021/05/16 14:26:35;;;;;;;2.70;1.17;;;;;;;17.79;51.15;98703.53;10250705;28;20062;-58
2021/05/16 14:31:36;;;;;;;2.78;1.10;;;;;;;18.10;51.04;98717.38;10268602;28;20047;-55
2021/05/16 14:36:38;;;;;;;6.72;1.55;;;;;;;18.18;51.57;98707.22;10278748;23;20117;-66
2021/05/16 14:41:39;;;;;;;3.63;1.38;;;;;;;17.89;50.03;98689.66;10259923;28;20106;-73
2021/05/16 14:46:41;;;;;;;3.97;1.20;;;;;;;17.84;48.60;98690.25;10257682;28;20059;-65
2021/05/16 14:51:43;;;;;;;3.58;1.30;;;;;;;17.98;50.01;98696.47;10247602;28;20058;-69
2021/05/16 14:56:45;;;;;;;4.13;1.20;;;;;;;17.82;48.94;98686.16;10257669;28;20061;-71
2021/05/16 15:01:47;;;;;;;3.97;1.25;;;;;;;17.74;47.85;98675.56;10245270;28;20740;-69
2021/05/16 15:06:50;;;;;;;2.20;1.00;;;;;;;17.80;47.32;98669.34;10256818;28;20138;-68
2021/05/16 15:11:51;;;;;;;3.47;1.30;;;;;;;17.84;43.99;98665.22;10256670;28;20509;-68
2021/05/16 15:16:53;;;;;;;4.65;0.68;;;;;;;17.75;44.88;98671.88;10243127;28;20145;-67
2021/05/16 15:21:54;;;;;;;3.13;1.00;;;;;;;17.85;42.34;98665.00;10239563;28;20075;-70
2021/05/16 15:26:57;;;;;;;5.25;1.63;;;;;;;17.98;41.20;98642.63;10262625;28;20065;-68
2021/05/16 15:31:58;;;;;;;4.38;1.20;;;;;;;17.88;43.62;98641.41;10256764;28;20086;-68
2021/05/16 15:37:00;;;;;;;2.13;1.00;;;;;;;17.66;44.07;98647.03;10244291;28;20433;-68
2021/05/16 15:42:04;;;;;;;3.45;1.30;;;;;;;17.48;44.90;98639.59;10231743;28;20055;-68
2021/05/16 15:47:06;;;;;;;4.27;1.30;;;;;;;17.43;45.88;98648.28;10248008;28;20539;-66
2021/05/16 15:52:08;;;;;;;5.30;1.60;;;;;;;17.48;46.18;98642.28;10233433;28;20051;-69
2021/05/16 15:57:09;;;;;;;3.33;1.48;;;;;;;17.47;45.29;98640.63;10256720;28;20137;-67
2021/05/16 16:02:11;;;;;;;4.57;1.63;;;;;;;17.39;45.92;98640.84;10258330;28;20113;-71
2021/05/16 16:07:13;;;;;;;3.55;1.48;;;;;;;17.28;45.52;98637.72;10240609;28;20695;-71
2021/05/16 16:12:15;;;;;;;2.90;1.25;;;;;;;17.17;45.26;98640.22;10256482;28;20416;-71
2021/05/16 16:17:17;;;;;;;4.30;1.30;;;;;;;17.05;46.04;98634.59;10255805;28;20062;-68
2021/05/16 16:22:18;;;;;;;1.88;1.42;;;;;;;16.90;47.19;98649.06;10250211;28;20105;-68
2021/05/16 16:27:29;;;;;;;3.47;1.00;;;;;;;16.77;47.67;98647.13;10256214;28;20417;-70
2021/05/16 16:32:30;;;;;;;1.85;0.93;;;;;;;16.63;52.55;98655.34;10254574;28;20201;-68
2021/05/16 16:37:32;;;;;;;3.15;1.00;;;;;;;15.97;54.67;98637.94;10241478;28;20082;-68
2021/05/16 16:42:33;;;;;;;4.10;1.25;;;;;;;15.95;54.67;98626.56;10255745;28;20126;-68
2021/05/16 16:47:35;;;;;;;2.47;0.70;;;;;;;15.86;54.92;98634.75;10263846;28;20061;-72
2021/05/16 16:52:39;;;;;;;4.60;1.58;;;;;;;15.77;56.49;98629.75;10259170;28;20097;-71
2021/05/16 16:57:41;;;;;;;1.85;0.95;;;;;;;15.86;55.93;98645.50;10244119;28;20047;-72
2021/05/16 17:02:45;;;;;;;1.67;0.80;;;;;;;15.74;54.74;98639.00;10254827;28;20494;-70
2021/05/16 17:07:48;;;;;;;3.08;1.17;;;;;;;15.51;54.92;98648.13;10240800;28;20054;-71
2021/05/16 17:12:51;;;;;;;2.45;1.13;;;;;;;15.47;54.69;98646.84;10253266;28;20125;-72
2021/05/16 17:17:53;;;;;;;2.83;0.80;;;;;;;15.45;56.13;98659.63;10241391;28;20050;-71
2021/05/16 17:22:56;;;;;;;2.72;1.20;;;;;;;15.43;58.21;98650.94;10255634;28;20469;-71
2021/05/16 17:27:58;;;;;;;4.43;2.55;;;;;;;15.10;59.57;98650.66;10238259;28;20179;-70
2021/05/16 17:32:59;;;;;;;6.30;1.30;;;;;;;14.87;62.74;98691.03;10254778;28;20122;-71
2021/05/16 17:38:01;;;;;;;4.32;1.00;;;;;;;14.55;65.50;98752.03;10255093;28;20083;-72
2021/05/16 17:43:03;;;;;;;3.65;1.35;;;;;;;14.13;69.77;98805.97;10261307;28;20078;-71
2021/05/16 17:48:05;;;;;;;3.28;1.30;;;;;;;14.52;69.53;98803.22;10275667;28;20106;-71
2021/05/16 17:53:06;;;;;;;1.90;1.00;;;;;;;13.71;72.24;98823.38;10252589;28;20137;-71
2021/05/16 17:58:08;;;;;;;2.17;0.88;;;;;;;13.37;76.60;98816.59;10269068;28;20141;-72
2021/05/16 18:03:09;;;;;;;2.42;1.10;;;;;;;13.21;77.03;98800.63;10270056;28;20101;-70
2021/05/16 18:08:11;;;;;;;1.65;0.93;;;;;;;13.36;75.56;98790.91;10274538;28;20051;-74
2021/05/16 18:13:13;;;;;;;2.40;0.88;;;;;;;13.31;75.85;98769.16;10250939;28;20122;-71
2021/05/16 18:18:14;;;;;;;2.53;0.63;;;;;;;13.58;74.26;98772.34;10251483;28;20073;-72
2021/05/16 18:23:17;;;;;;;2.10;0.70;;;;;;;13.69;73.17;98776.44;10250018;28;20051;-75
2021/05/16 18:28:19;;;;;;;2.40;1.52;;;;;;;13.68;72.42;98775.63;10266839;28;20050;-69
2021/05/16 18:33:20;;;;;;;1.92;1.38;;;;;;;13.66;74.09;98774.97;10279315;28;20066;-69
2021/05/16 18:38:22;;;;;;;1.45;0.90;;;;;;;13.67;73.73;98783.81;10239224;28;20071;-72
2021/05/16 18:43:24;;;;;;;9.57;4.38;;;;;;;13.62;73.47;98765.66;10261656;28;20050;-72
2021/05/16 18:48:30;;;;;;;3.05;1.52;;;;;;;13.63;72.92;98777.16;10282197;28;20059;-70
2021/05/16 18:53:33;;;;;;;3.22;1.17;;;;;;;13.49;72.13;98770.75;10307199;28;20090;-71
2021/05/16 18:58:42;;;;;;;1.50;1.35;;;;;;;13.47;74.05;98788.81;10262782;28;20058;-71
2021/05/16 19:03:46;;;;;;;1.45;1.02;;;;;;;13.44;73.89;98785.47;10280494;28;20110;-70
2021/05/16 19:08:48;;;;;;;4.25;1.52;;;;;;;13.33;74.67;98780.53;10269511;28;20063;-74
2021/05/16 19:13:49;;;;;;;2.30;1.50;;;;;;;13.32;75.16;98784.19;10261520;28;20540;-73
2021/05/16 19:18:51;;;;;;;1.70;1.30;;;;;;;13.15;75.65;98777.28;10261640;28;20070;-71
2021/05/16 19:23:52;;;;;;;4.20;2.47;;;;;;;13.01;76.91;98774.34;10274743;28;20191;-70
2021/05/16 19:28:54;;;;;;;3.15;1.70;;;;;;;13.01;77.18;98781.53;10269389;28;20089;-73
2021/05/16 19:33:56;;;;;;;1.65;1.23;;;;;;;12.96;77.65;98798.09;10250754;28;20070;-71
2021/05/16 19:38:57;;;;;;;2.15;1.38;;;;;;;12.87;77.35;98793.81;10249526;28;20059;-73
2021/05/16 19:43:59;;;;;;;2.65;1.40;;;;;;;12.97;77.52;98801.59;10240952;28;20492;-71
2021/05/16 19:49:00;;;;;;;1.88;1.77;;;;;;;12.94;77.69;98797.44;10264325;28;20125;-70
2021/05/16 19:54:02;;;;;;;3.50;1.50;;;;;;;13.01;78.09;98795.72;10244555;28;20084;-70
2021/05/16 19:59:04;;;;;;;3.90;1.58;;;;;;;12.98;78.18;98785.38;10241350;28;20054;-71
2021/05/16 20:04:07;;;;;;;4.20;1.75;;;;;;;13.06;78.24;98797.88;10235842;28;20051;-71
2021/05/16 20:09:10;;;;;;;4.22;2.50;;;;;;;13.05;79.02;98797.03;10223627;28;20065;-74
2021/05/16 20:14:11;;;;;;;6.15;2.70;;;;;;;13.00;78.98;98802.09;10246950;28;20074;-73
2021/05/16 20:19:13;;;;;;;3.08;2.20;;;;;;;13.01;78.94;98817.09;10248954;28;20066;-73
2021/05/16 20:24:14;;;;;;;3.03;2.08;;;;;;;13.06;79.00;98828.09;10247775;28;20063;-71
2021/05/16 20:29:17;;;;;;;4.75;2.42;;;;;;;13.02;79.30;98842.81;10263936;28;20481;-72
2021/05/16 20:34:19;;;;;;;3.45;2.40;;;;;;;13.05;79.69;98834.44;10236169;28;20054;-73
2021/05/16 20:39:20;;;;;;;4.72;2.80;;;;;;;12.75;80.44;98853.94;10268216;28;20070;-70
2021/05/16 20:44:22;;;;;;;3.25;2.38;;;;;;;12.58;81.71;98848.66;10271067;28;20113;-72
2021/05/16 20:49:23;;;;;;;3.83;3.08;;;;;;;12.71;80.92;98848.09;10272393;28;20498;-71
2021/05/16 20:54:25;;;;;;;4.25;2.85;;;;;;;12.67;80.75;98839.59;10250001;28;20054;-71
2021/05/16 20:59:26;;;;;;;2.95;2.58;;;;;;;12.65;80.58;98835.44;10262831;28;20047;-71
2021/05/16 21:04:28;;;;;;;2.90;2.53;;;;;;;12.54;80.62;98836.63;10281462;28;20050;-71
2021/05/16 21:09:30;;;;;;;4.25;3.30;;;;;;;12.49;81.61;98838.97;10261831;28;20078;-71
2021/05/16 21:14:35;;;;;;;3.80;2.65;;;;;;;12.40;81.28;98834.66;10247850;28;20563;-71
2021/05/16 21:19:37;;;;;;;3.92;2.72;;;;;;;12.28;81.93;98845.69;10250776;28;20094;-71
2021/05/16 21:24:38;;;;;;;3.17;2.67;;;;;;;12.34;81.74;98857.50;10250667;28;20039;-74
2021/05/16 21:29:40;;;;;;;4.40;2.58;;;;;;;12.32;81.80;98843.50;10277990;28;20153;-73
2021/05/16 21:34:42;;;;;;;4.50;2.70;;;;;;;12.26;81.43;98845.00;10261730;28;20046;-71
2021/05/16 21:39:44;;;;;;;4.05;2.10;;;;;;;12.14;81.42;98841.84;10267990;28;20540;-71
2021/05/16 21:44:45;;;;;;;4.00;2.72;;;;;;;12.21;81.50;98852.72;10272870;28;20046;-72
2021/05/16 21:49:47;;;;;;;3.88;2.33;;;;;;;12.23;81.18;98853.34;10293949;28;20548;-72
2021/05/16 21:54:48;;;;;;;4.05;2.33;;;;;;;12.05;82.22;98860.72;10249722;28;20054;-72
2021/05/16 21:59:52;;;;;;;3.60;2.22;;;;;;;11.95;82.51;98848.38;10259390;28;20054;-72
2021/05/16 22:04:53;;;;;;;2.30;2.10;;;;;;;11.93;82.52;98855.69;10249912;28;20159;-70
2021/05/16 22:09:55;;;;;;;3.17;2.10;;;;;;;11.94;82.15;98857.38;10277380;28;20051;-71
2021/05/16 22:14:56;;;;;;;2.63;1.90;;;;;;;11.90;81.82;98856.00;10257868;28;20047;-71
2021/05/16 22:20:00;;;;;;;5.13;2.67;;;;;;;11.82;82.53;98858.69;10250771;28;20114;-72
2021/05/16 22:25:03;;;;;;;3.38;1.83;;;;;;;11.95;82.51;98855.53;10245893;28;20157;-72
2021/05/16 22:30:07;;;;;;;3.30;2.13;;;;;;;12.08;81.63;98863.03;10269008;28;20178;-70
2021/05/16 22:35:10;;;;;;;2.50;1.60;;;;;;;12.22;81.70;98861.53;10264306;28;20043;-71
2021/05/16 22:40:12;;;;;;;3.15;1.63;;;;;;;12.27;79.79;98857.38;10256385;28;20063;-71
2021/05/16 22:45:14;;;;;;;3.42;1.92;;;;;;;12.27;80.59;98857.38;10271344;28;20440;-74
2021/05/16 22:50:17;;;;;;;3.72;1.70;;;;;;;12.25;80.77;98851.38;10250062;28;20042;-71
2021/05/16 22:55:19;;;;;;;2.00;1.48;;;;;;;12.27;80.55;98851.22;10265125;28;20047;-70
2021/05/16 23:00:29;;;;;;;3.55;1.45;;;;;;;12.26;80.42;98855.69;10264642;28;20506;-70
2021/05/16 23:05:32;;;;;;;4.13;1.77;;;;;;;12.22;80.63;98851.72;10246145;28;20059;-72
2021/05/16 23:10:36;;;;;;;3.33;1.50;;;;;;;12.08;81.04;98857.72;10248674;28;20082;-72
2021/05/16 23:15:37;;;;;;;3.00;1.10;;;;;;;12.14;82.81;98847.19;10250170;28;20599;-71
2021/05/16 23:20:42;;;;;;;3.20;1.30;;;;;;;12.13;81.61;98850.88;10269082;28;20054;-71
2021/05/16 23:25:44;;;;;;;1.55;0.85;;;;;;;12.11;81.68;98847.53;10260679;28;20505;-71
2021/05/16 23:30:46;;;;;;;2.80;1.20;;;;;;;12.08;82.33;98841.72;10226134;28;20039;-71